Liberia, Costa Rica

2:27 PM CST on April 23, 2017 (GMT -0600)
Sede de Guanacaste, Liberia | | Change Station

Elev 417 ft 10.62 °N, 85.46 °W | Updated 8 seconds ago

Partly Cloudy
Partly Cloudy
84.1 °F
Feels Like 93 °F
N
5.0
Wind Variable Wind from NE
Gusts 13.0 mph

Today
High -- | Low -- °F
--% Chance of Precip.
Yesterday
High -- | Low -- °F
Precip. -- in
Pressure 29.74 in
Visibility 6.2 miles
Clouds Few 2000 ft
Scattered Clouds 4000 ft
Heat Index 93 °F
Dew Point 76 °F
Humidity 77%
Rainfall 0.00 in
Snow Depth Not available.
5:26 AM 5:53 PM
Waning Crescent, 10% visible
METAR MRLB 232000Z 29015KT 9999 VCSH FEW020TCU SCT040 33/23 A2974 NOSIG
Pressure 29.74 in
Visibility 6.2 miles
Clouds Few 2000 ft
Scattered Clouds 4000 ft
Heat Index 93 °F
Dew Point 76 °F
Humidity 77%
Rainfall 0.00 in
Snow Depth Not available.
5:26 AM 5:53 PM
Waning Crescent, 10% visible
METAR MRLB 232000Z 29015KT 9999 VCSH FEW020TCU SCT040 33/23 A2974 NOSIG

Get Severe Weather Alerts

Thanks for signing up!

Be on the lookout for a verification email in your inbox.

You'll start receiving the daily forecast at 8 AM.

×

10-Day Weather Forecast

No radar image for this location.
×

Almanac

Astronomy

Apr. 23, 2017 Rise Set
Actual Time
Civil Twilight
Nautical Twilight
Astronomical Twilight
Moon
Length of Visible Light
Length of Day
Tomorrow will be .
, % of the Moon is Illuminated

Today's Extremes

Country Highs Country Lows

Community

WunderPhotos

WunderBlog® & News

Nearby

Air Quality

  Air Quality AQ Index Pollutant
Not available.

Snow Depth

Station Depth Elevation

Earthquake Activity

City Distance Mag. Time & Date
Minimum magnitude displayed is 2.5.

Coastal Water Temperatures

Place Temperature

Stations

Nearby Weather Stations

Station Location Temp. Windchill Dew Point Humidity Wind Precip. Elev Updated Type